createdAt,value
2023-02-11T00:01:16.579Z,21.15
2023-02-11T00:03:43.122Z,20.48
2023-02-11T00:06:11.480Z,19.75
2023-02-11T00:08:38.583Z,21.65
2023-02-11T00:11:05.418Z,21.20
2023-02-11T00:13:31.876Z,21.63
2023-02-11T00:15:58.380Z,21.33
2023-02-11T00:18:24.946Z,21.23
2023-02-11T00:20:51.477Z,20.98
2023-02-11T00:23:17.899Z,20.13
2023-02-11T00:25:45.707Z,20.38
2023-02-11T00:28:12.591Z,20.63
2023-02-11T00:30:39.362Z,21.25
2023-02-11T00:33:05.903Z,21.00
2023-02-11T00:35:32.459Z,21.10
2023-02-11T00:37:58.951Z,20.77
2023-02-11T00:40:25.782Z,20.73
2023-02-11T00:42:52.312Z,21.20
2023-02-11T00:45:20.919Z,21.73
2023-02-11T00:47:47.846Z,20.43
2023-02-11T00:50:14.404Z,21.25
2023-02-11T00:52:40.941Z,21.27
2023-02-11T00:55:07.818Z,21.35
2023-02-11T00:57:34.404Z,22.13
2023-02-11T01:00:00.829Z,22.07
2023-02-11T01:02:27.473Z,21.80
2023-02-11T01:04:54.043Z,21.45
2023-02-11T01:07:20.492Z,19.63
2023-02-11T01:09:46.843Z,20.20
2023-02-11T01:12:13.301Z,20.20
2023-02-11T01:14:39.743Z,21.02
2023-02-11T01:17:06.394Z,19.58
2023-02-11T01:19:32.939Z,20.15
2023-02-11T01:21:59.746Z,20.35
2023-02-11T01:24:26.270Z,20.80
2023-02-11T01:26:52.759Z,20.67
2023-02-11T01:29:19.583Z,20.40
2023-02-11T01:31:46.021Z,19.98
2023-02-11T01:34:13.041Z,20.10
2023-02-11T01:36:39.475Z,20.10
2023-02-11T01:39:05.996Z,19.77
2023-02-11T01:41:32.484Z,19.42
2023-02-11T01:43:58.924Z,19.63
2023-02-11T01:46:38.488Z,21.45
2023-02-11T01:49:18.188Z,21.00
2023-02-11T01:51:51.585Z,20.50
2023-02-11T01:54:41.058Z,19.50
2023-02-11T01:57:23.521Z,19.55
2023-02-11T02:00:11.487Z,20.35
2023-02-11T02:02:56.645Z,22.13
2023-02-11T02:05:56.915Z,20.33
2023-02-11T02:08:42.388Z,20.25
2023-02-11T02:11:09.200Z,22.10
2023-02-11T02:13:36.412Z,20.33
2023-02-11T02:16:09.298Z,20.37
2023-02-11T02:19:16.636Z,20.63
2023-02-11T02:22:40.252Z,21.30
2023-02-11T02:25:25.901Z,20.00
2023-02-11T02:28:04.212Z,20.08
2023-02-11T02:30:39.862Z,19.90
2023-02-11T02:33:22.377Z,20.15
2023-02-11T02:36:02.623Z,19.70
2023-02-11T02:38:35.019Z,20.05
2023-02-11T02:41:06.508Z,20.48
2023-02-11T02:43:34.862Z,19.00
2023-02-11T02:46:26.200Z,20.10
2023-02-11T02:48:54.130Z,20.88
2023-02-11T02:51:43.925Z,19.98
2023-02-11T02:54:33.322Z,19.95
2023-02-11T02:57:11.585Z,19.37
2023-02-11T03:00:09.548Z,19.20
2023-02-11T03:02:56.301Z,19.60
2023-02-11T03:05:40.769Z,19.08
2023-02-11T03:08:31.101Z,20.02
2023-02-11T03:10:59.013Z,17.60
2023-02-11T03:13:33.413Z,18.42
2023-02-11T03:16:07.658Z,18.13
2023-02-11T03:18:36.765Z,19.00
2023-02-11T03:21:08.207Z,18.38
2023-02-11T03:23:44.521Z,19.83
2023-02-11T03:26:21.710Z,19.35
2023-02-11T03:28:51.403Z,19.85
2023-02-11T03:31:34.216Z,19.25
2023-02-11T03:34:18.367Z,19.40
2023-02-11T03:36:51.470Z,18.90
2023-02-11T03:39:23.283Z,20.60
2023-02-11T03:41:51.528Z,19.23
2023-02-11T03:44:20.870Z,21.23
2023-02-11T03:46:50.558Z,20.08
2023-02-11T03:49:21.249Z,19.47
2023-02-11T03:51:51.419Z,18.95
2023-02-11T03:54:23.293Z,18.00
2023-02-11T03:56:55.791Z,19.45
2023-02-11T03:59:22.979Z,18.33
2023-02-11T04:01:49.737Z,20.43
2023-02-11T04:04:16.475Z,18.48
2023-02-11T04:06:43.445Z,18.08
2023-02-11T04:09:11.102Z,19.00
2023-02-11T04:11:37.614Z,18.83
2023-02-11T04:14:04.183Z,17.03
2023-02-11T04:16:31.076Z,19.70
2023-02-11T04:18:57.632Z,18.52
2023-02-11T04:21:24.186Z,18.55
2023-02-11T04:23:50.644Z,21.90
2023-02-11T04:26:17.104Z,19.37
2023-02-11T04:28:43.488Z,19.30
2023-02-11T04:31:12.041Z,19.75
2023-02-11T04:33:38.551Z,19.00
2023-02-11T04:36:05.233Z,19.17
2023-02-11T04:38:31.786Z,18.93
2023-02-11T04:41:00.458Z,18.80
2023-02-11T04:43:26.995Z,19.30
2023-02-11T04:45:57.351Z,19.67
2023-02-11T04:48:23.902Z,18.65
2023-02-11T04:50:50.379Z,18.10
2023-02-11T04:53:16.776Z,18.30
2023-02-11T04:55:43.299Z,19.35
2023-02-11T04:58:09.752Z,19.35
2023-02-11T05:00:36.330Z,18.85
2023-02-11T05:03:02.747Z,18.60
2023-02-11T05:05:29.304Z,22.50
2023-02-11T05:07:55.670Z,18.52
2023-02-11T05:10:22.113Z,19.77
2023-02-11T05:12:49.451Z,18.13
2023-02-11T05:15:16.253Z,19.83
2023-02-11T05:17:42.821Z,19.75
2023-02-11T05:20:10.008Z,19.25
2023-02-11T05:22:36.423Z,19.55
2023-02-11T05:25:02.945Z,19.63
2023-02-11T05:27:29.467Z,19.47
2023-02-11T05:29:55.962Z,19.35
2023-02-11T05:32:22.390Z,18.63
2023-02-11T05:34:48.760Z,19.17
2023-02-11T05:37:15.972Z,18.95
2023-02-11T05:39:42.434Z,17.57
2023-02-11T05:42:09.180Z,18.38
2023-02-11T05:44:35.806Z,18.67
2023-02-11T05:47:02.313Z,18.45
2023-02-11T05:49:28.884Z,19.67
2023-02-11T05:51:55.340Z,18.20
2023-02-11T05:54:21.853Z,19.10
2023-02-11T05:56:48.292Z,20.98
2023-02-11T05:59:15.113Z,20.20
2023-02-11T06:01:41.643Z,18.85
2023-02-11T06:04:08.254Z,18.97
2023-02-11T06:06:34.692Z,19.38
2023-02-11T06:09:01.303Z,18.70
2023-02-11T06:11:27.780Z,19.95
2023-02-11T06:13:54.149Z,18.67
2023-02-11T06:16:20.631Z,19.50
2023-02-11T06:18:47.118Z,19.45
2023-02-11T06:21:13.726Z,19.80
2023-02-11T06:23:40.194Z,20.00
2023-02-11T06:26:09.022Z,19.52
2023-02-11T06:28:36.179Z,20.20
2023-02-11T06:31:06.919Z,19.52
2023-02-11T06:33:35.032Z,20.50
2023-02-11T06:36:02.683Z,20.77
2023-02-11T06:38:29.149Z,24.20
2023-02-11T06:40:55.653Z,25.17
2023-02-11T06:43:22.407Z,25.25
2023-02-11T06:45:55.713Z,23.52
2023-02-11T06:48:22.967Z,24.52
2023-02-11T06:50:49.555Z,22.70
2023-02-11T06:53:16.113Z,21.53
2023-02-11T06:55:42.638Z,23.63
2023-02-11T06:58:09.077Z,27.00
2023-02-11T07:00:37.853Z,22.58
2023-02-11T07:03:04.510Z,23.65
2023-02-11T07:05:31.034Z,22.23
2023-02-11T07:07:57.592Z,21.48
2023-02-11T07:10:24.079Z,23.05
2023-02-11T07:12:50.540Z,21.05
2023-02-11T07:15:17.039Z,20.95
2023-02-11T07:17:43.508Z,22.10
2023-02-11T07:20:12.365Z,21.13
2023-02-11T07:22:38.790Z,20.58
2023-02-11T07:25:05.612Z,20.42
2023-02-11T07:27:32.203Z,21.05
2023-02-11T07:29:58.591Z,22.10
2023-02-11T07:32:24.993Z,20.05
2023-02-11T07:34:51.860Z,20.25
2023-02-11T07:37:18.630Z,19.77
2023-02-11T07:39:45.226Z,19.58
2023-02-11T07:42:11.704Z,20.30
2023-02-11T07:44:38.262Z,20.75
2023-02-11T07:47:04.862Z,21.00
2023-02-11T07:49:31.460Z,20.58
2023-02-11T07:51:57.912Z,20.73
2023-02-11T07:54:24.411Z,19.97
2023-02-11T07:56:50.854Z,19.92
2023-02-11T07:59:17.555Z,20.20
2023-02-11T08:01:44.149Z,19.65
2023-02-11T08:04:10.778Z,20.52
2023-02-11T08:06:42.166Z,19.67
2023-02-11T08:09:13.681Z,19.17
2023-02-11T08:11:40.167Z,20.30
2023-02-11T08:14:06.629Z,21.00
2023-02-11T08:16:35.180Z,21.08
2023-02-11T08:19:05.013Z,20.43
2023-02-11T08:21:31.522Z,19.75
2023-02-11T08:23:58.290Z,20.27
2023-02-11T08:26:29.565Z,19.77
2023-02-11T08:28:57.933Z,20.40
2023-02-11T08:31:40.457Z,20.73
2023-02-11T08:34:07.616Z,20.67
2023-02-11T08:36:36.377Z,20.73
2023-02-11T08:39:22.477Z,19.95
2023-02-11T08:41:54.089Z,19.70
2023-02-11T08:44:21.946Z,19.87
2023-02-11T08:46:49.685Z,18.75
2023-02-11T08:49:16.404Z,18.15
2023-02-11T08:51:43.576Z,30.08
2023-02-11T08:54:10.285Z,17.88
2023-02-11T08:56:38.477Z,17.40
2023-02-11T08:59:05.659Z,19.90
2023-02-11T09:01:33.358Z,16.98
2023-02-11T09:03:59.933Z,16.17
2023-02-11T09:06:27.565Z,16.60
2023-02-11T09:08:55.523Z,16.60
2023-02-11T09:11:27.684Z,17.05
2023-02-11T09:13:54.683Z,16.00
2023-02-11T09:16:24.559Z,15.68
2023-02-11T09:18:52.095Z,15.27
2023-02-11T09:21:19.593Z,15.73
2023-02-11T09:23:47.843Z,16.17
2023-02-11T09:26:26.207Z,16.48
2023-02-11T09:28:53.040Z,16.02
2023-02-11T09:31:22.776Z,16.30
2023-02-11T09:33:51.890Z,15.60
2023-02-11T09:36:23.966Z,17.17
2023-02-11T09:38:51.236Z,16.33
2023-02-11T09:41:49.792Z,16.77
2023-02-11T09:44:23.994Z,17.70
2023-02-11T09:46:56.529Z,18.97
2023-02-11T09:49:31.461Z,18.05
2023-02-11T09:52:05.138Z,17.08
2023-02-11T09:54:45.434Z,16.63
2023-02-11T09:57:26.563Z,15.32
2023-02-11T09:59:55.374Z,15.57
2023-02-11T10:02:29.639Z,17.00
2023-02-11T10:05:23.516Z,15.98
2023-02-11T10:08:09.843Z,15.38
2023-02-11T10:10:39.448Z,16.33
2023-02-11T10:13:32.975Z,18.83
2023-02-11T10:16:24.314Z,17.25
2023-02-11T10:19:07.366Z,16.10
2023-02-11T10:22:03.195Z,16.77
2023-02-11T10:24:29.915Z,16.73
2023-02-11T10:26:56.356Z,16.10
2023-02-11T10:29:49.800Z,14.65
2023-02-11T10:32:38.849Z,15.35
2023-02-11T10:35:15.547Z,15.60
2023-02-11T10:37:44.465Z,16.33
2023-02-11T10:40:19.397Z,15.23
2023-02-11T10:42:49.427Z,14.70
2023-02-11T10:45:23.800Z,14.77
2023-02-11T10:47:50.410Z,14.55
2023-02-11T10:50:26.408Z,15.23
2023-02-11T10:52:53.020Z,16.23
2023-02-11T10:55:25.976Z,14.77
2023-02-11T10:58:00.331Z,14.15
2023-02-11T11:00:37.108Z,13.63
2023-02-11T11:03:07.283Z,14.68
2023-02-11T11:05:46.722Z,13.83
2023-02-11T11:08:13.247Z,14.93
2023-02-11T11:11:04.725Z,14.25
2023-02-11T11:13:52.897Z,21.23
2023-02-11T11:16:24.515Z,14.50
2023-02-11T11:18:54.386Z,12.87
2023-02-11T11:21:20.822Z,12.52
2023-02-11T11:23:57.311Z,12.55
2023-02-11T11:26:26.464Z,12.82
2023-02-11T11:29:00.618Z,14.18
2023-02-11T11:31:32.507Z,13.17
2023-02-11T11:34:02.444Z,14.73
2023-02-11T11:36:36.118Z,14.95
2023-02-11T11:39:21.528Z,13.98
2023-02-11T11:41:57.551Z,13.70
2023-02-11T11:44:28.136Z,14.20
2023-02-11T11:47:07.612Z,13.77
2023-02-11T11:50:00.141Z,13.90
2023-02-11T11:52:32.407Z,13.80
2023-02-11T11:55:07.952Z,13.10
2023-02-11T11:57:38.495Z,13.70
2023-02-11T12:00:06.777Z,13.25
2023-02-11T12:03:11.647Z,13.50
2023-02-11T12:06:01.395Z,12.15
2023-02-11T12:09:03.868Z,12.48
2023-02-11T12:11:42.373Z,13.50
2023-02-11T12:14:26.949Z,12.80
2023-02-11T12:16:58.690Z,13.00
2023-02-11T12:19:49.607Z,12.82
2023-02-11T12:22:26.458Z,13.15
2023-02-11T12:25:26.930Z,13.70
2023-02-11T12:28:14.579Z,14.05
2023-02-11T12:30:58.425Z,17.45
2023-02-11T12:33:34.373Z,13.43
2023-02-11T12:36:27.698Z,14.65
2023-02-11T12:39:17.988Z,14.93
2023-02-11T12:42:26.538Z,13.98
2023-02-11T12:45:15.932Z,11.95
2023-02-11T12:48:25.370Z,13.10
2023-02-11T12:51:09.635Z,13.05
2023-02-11T12:53:38.653Z,13.07
2023-02-11T12:56:29.407Z,11.77
2023-02-11T12:58:58.883Z,11.50
2023-02-11T13:01:29.527Z,11.40
2023-02-11T13:04:04.550Z,11.30
2023-02-11T13:07:11.673Z,12.17
2023-02-11T13:09:52.267Z,11.45
2023-02-11T13:12:37.747Z,11.45
2023-02-11T13:15:07.585Z,10.90
2023-02-11T13:17:41.406Z,9.95
2023-02-11T13:20:25.369Z,10.53
2023-02-11T13:23:31.699Z,10.40
2023-02-11T13:26:17.332Z,11.00
2023-02-11T13:29:20.770Z,11.27
2023-02-11T13:32:05.848Z,10.63
2023-02-11T13:34:41.365Z,11.20
2023-02-11T13:37:23.544Z,10.50
2023-02-11T13:40:21.230Z,10.25
2023-02-11T13:42:56.929Z,10.43
2023-02-11T13:45:35.852Z,9.23
2023-02-11T13:48:06.441Z,8.97
2023-02-11T13:50:39.300Z,10.00
2023-02-11T13:53:08.761Z,9.40
2023-02-11T13:55:35.778Z,9.93
2023-02-11T13:58:08.396Z,9.68
2023-02-11T14:00:34.831Z,10.40
2023-02-11T14:03:29.209Z,10.65
2023-02-11T14:06:26.638Z,9.90
2023-02-11T14:09:13.501Z,8.98
2023-02-11T14:11:47.636Z,8.77
2023-02-11T14:14:21.719Z,8.60
2023-02-11T14:17:18.194Z,8.95
2023-02-11T14:19:47.605Z,9.07
2023-02-11T14:22:31.731Z,9.57
2023-02-11T14:25:02.670Z,9.75
2023-02-11T14:27:38.032Z,9.80
2023-02-11T14:30:25.641Z,9.65
2023-02-11T14:33:19.413Z,9.45
2023-02-11T14:36:10.016Z,9.40
2023-02-11T14:38:52.322Z,11.25
2023-02-11T14:41:31.880Z,11.07
2023-02-11T14:44:01.621Z,11.07
2023-02-11T14:46:32.972Z,10.85
2023-02-11T14:49:05.156Z,10.82
2023-02-11T14:51:39.939Z,11.80
2023-02-11T14:54:24.867Z,11.37
2023-02-11T14:57:13.325Z,12.05
2023-02-11T14:59:40.982Z,10.57
2023-02-11T15:02:37.671Z,12.25
2023-02-11T15:05:22.239Z,12.88
2023-02-11T15:07:52.604Z,11.60
2023-02-11T15:10:26.628Z,12.88
2023-02-11T15:12:53.520Z,11.38
2023-02-11T15:15:20.068Z,11.05
2023-02-11T15:17:46.927Z,12.25
2023-02-11T15:20:22.028Z,11.00
2023-02-11T15:22:52.877Z,14.07
2023-02-11T15:25:20.172Z,18.23
2023-02-11T15:27:53.180Z,13.80
2023-02-11T15:30:22.793Z,13.80
2023-02-11T15:32:58.017Z,12.17
2023-02-11T15:35:37.178Z,13.35
2023-02-11T15:38:05.355Z,12.70
2023-02-11T15:40:34.692Z,16.30
2023-02-11T15:43:10.037Z,14.73
2023-02-11T15:45:44.120Z,17.80
2023-02-11T15:48:17.662Z,17.02
2023-02-11T15:50:51.586Z,37.15
2023-02-11T15:53:30.963Z,20.60
2023-02-11T15:56:37.684Z,16.98
2023-02-11T15:59:27.448Z,14.07
2023-02-11T16:01:55.404Z,13.75
2023-02-11T16:04:25.096Z,14.50
2023-02-11T16:06:53.106Z,14.73
2023-02-11T16:09:19.546Z,16.52
2023-02-11T16:11:45.912Z,18.57
2023-02-11T16:14:27.797Z,15.38
2023-02-11T16:17:05.522Z,19.95
2023-02-11T16:19:33.833Z,17.58
2023-02-11T16:22:07.859Z,14.88
2023-02-11T16:24:36.946Z,13.87
2023-02-11T16:27:07.447Z,14.68
2023-02-11T16:29:36.969Z,13.65
2023-02-11T16:32:15.514Z,14.85
2023-02-11T16:34:42.172Z,16.33
2023-02-11T16:37:08.977Z,15.93
2023-02-11T16:39:35.574Z,23.40
2023-02-11T16:42:02.575Z,18.48
2023-02-11T16:44:29.701Z,14.80
2023-02-11T16:46:59.958Z,20.13
2023-02-11T16:49:30.218Z,17.73
2023-02-11T16:52:01.803Z,16.58
2023-02-11T16:54:29.454Z,16.77
2023-02-11T16:56:56.516Z,16.17
2023-02-11T16:59:23.225Z,16.10
2023-02-11T17:01:52.016Z,16.80
2023-02-11T17:04:26.055Z,15.18
2023-02-11T17:06:52.720Z,16.27
2023-02-11T17:09:23.092Z,15.38
2023-02-11T17:11:50.172Z,18.40
2023-02-11T17:14:17.539Z,16.93
2023-02-11T17:16:46.017Z,15.55
2023-02-11T17:19:15.104Z,16.58
2023-02-11T17:21:45.812Z,26.20
2023-02-11T17:24:15.010Z,21.35
2023-02-11T17:26:43.067Z,23.00
2023-02-11T17:29:18.130Z,22.73
2023-02-11T17:31:44.712Z,19.67
2023-02-11T17:34:11.693Z,20.00
2023-02-11T17:36:38.398Z,18.77
2023-02-11T17:39:07.793Z,18.93
2023-02-11T17:41:37.493Z,19.52
2023-02-11T17:44:04.424Z,18.88
2023-02-11T17:46:32.227Z,19.30
2023-02-11T17:48:59.535Z,19.88
2023-02-11T17:51:30.798Z,18.43
2023-02-11T17:53:59.877Z,18.30
2023-02-11T17:56:26.486Z,21.80
2023-02-11T17:58:53.165Z,22.67
2023-02-11T18:01:20.448Z,23.73
2023-02-11T18:03:47.043Z,23.60
2023-02-11T18:06:14.349Z,22.83
2023-02-11T18:08:43.080Z,22.08
2023-02-11T18:11:11.926Z,21.67
2023-02-11T18:13:38.404Z,24.27
2023-02-11T18:16:08.526Z,22.70
2023-02-11T18:18:35.987Z,24.05
2023-02-11T18:21:09.733Z,21.05
2023-02-11T18:23:36.251Z,18.83
2023-02-11T18:26:03.169Z,19.92
2023-02-11T18:28:29.734Z,21.03
2023-02-11T18:30:58.518Z,19.40
2023-02-11T18:33:25.717Z,21.35
2023-02-11T18:35:52.600Z,19.45
2023-02-11T18:38:19.298Z,20.30
2023-02-11T18:40:50.334Z,20.53
2023-02-11T18:43:17.677Z,18.35
2023-02-11T18:45:44.976Z,18.13
2023-02-11T18:48:12.344Z,19.63
2023-02-11T18:50:45.950Z,19.02
2023-02-11T18:53:15.676Z,19.77
2023-02-11T18:55:43.761Z,23.45
2023-02-11T18:58:10.552Z,24.65
2023-02-11T19:00:40.767Z,21.20
2023-02-11T19:03:07.506Z,20.65
2023-02-11T19:05:44.730Z,22.60
2023-02-11T19:08:11.647Z,21.17
2023-02-11T19:10:46.603Z,22.50
2023-02-11T19:13:14.023Z,22.05
2023-02-11T19:15:42.290Z,26.48
2023-02-11T19:18:09.224Z,35.97
2023-02-11T19:20:35.674Z,22.42
2023-02-11T19:23:02.155Z,23.58
2023-02-11T19:25:28.618Z,22.23
2023-02-11T19:27:55.041Z,21.63
2023-02-11T19:30:21.906Z,49.00
2023-02-11T19:32:52.459Z,26.45
2023-02-11T19:35:19.726Z,29.73
2023-02-11T19:37:46.325Z,24.98
2023-02-11T19:40:13.342Z,25.48
2023-02-11T19:42:39.753Z,27.07
2023-02-11T19:45:07.481Z,23.48
2023-02-11T19:47:34.289Z,25.42
2023-02-11T19:50:00.879Z,24.75
2023-02-11T19:52:27.656Z,24.38
2023-02-11T19:54:54.195Z,25.70
2023-02-11T19:57:20.744Z,22.75
2023-02-11T19:59:47.167Z,22.75
2023-02-11T20:02:13.703Z,22.40
2023-02-11T20:04:40.141Z,21.75
2023-02-11T20:07:06.579Z,24.23
2023-02-11T20:09:33.167Z,22.30
2023-02-11T20:11:59.635Z,20.48
2023-02-11T20:14:27.947Z,20.83
2023-02-11T20:16:54.645Z,21.10
2023-02-11T20:19:22.269Z,21.30
2023-02-11T20:21:52.949Z,22.05
2023-02-11T20:24:20.158Z,20.55
2023-02-11T20:26:48.508Z,21.52
2023-02-11T20:29:17.458Z,21.73
2023-02-11T20:31:44.362Z,22.57
2023-02-11T20:34:12.051Z,22.58
2023-02-11T20:36:40.243Z,22.85
2023-02-11T20:39:06.927Z,20.55
2023-02-11T20:41:36.535Z,20.90
2023-02-11T20:44:07.220Z,20.47
2023-02-11T20:46:36.709Z,20.85
2023-02-11T20:49:03.352Z,18.38
2023-02-11T20:51:31.869Z,19.38
2023-02-11T20:53:59.153Z,20.35
2023-02-11T20:56:29.449Z,23.37
2023-02-11T20:59:01.971Z,22.02
2023-02-11T21:01:34.818Z,30.15
2023-02-11T21:04:10.770Z,22.85
2023-02-11T21:06:40.817Z,20.65
2023-02-11T21:09:09.650Z,20.80
2023-02-11T21:11:36.281Z,22.20
2023-02-11T21:14:03.375Z,22.15
2023-02-11T21:16:29.986Z,22.17
2023-02-11T21:18:56.861Z,23.50
2023-02-11T21:21:23.868Z,25.17
2023-02-11T21:23:50.358Z,25.20
2023-02-11T21:26:19.795Z,22.98
2023-02-11T21:28:46.300Z,21.50
2023-02-11T21:31:23.660Z,22.10
2023-02-11T21:33:50.971Z,21.50
2023-02-11T21:36:17.921Z,21.17
2023-02-11T21:38:44.589Z,25.17
2023-02-11T21:41:11.429Z,23.05
2023-02-11T21:43:38.132Z,22.05
2023-02-11T21:46:11.106Z,24.93
2023-02-11T21:48:38.229Z,23.45
2023-02-11T21:51:12.734Z,23.17
2023-02-11T21:53:39.277Z,22.80
2023-02-11T21:56:07.030Z,22.48
2023-02-11T21:58:34.437Z,20.67
2023-02-11T22:01:01.598Z,20.67
2023-02-11T22:03:28.195Z,20.38
2023-02-11T22:05:54.916Z,22.02
2023-02-11T22:08:21.616Z,24.30
2023-02-11T22:10:48.050Z,22.60
2023-02-11T22:13:14.561Z,26.73
2023-02-11T22:15:41.010Z,25.00
2023-02-11T22:18:08.105Z,24.63
2023-02-11T22:20:34.528Z,24.88
2023-02-11T22:23:00.913Z,22.47
2023-02-11T22:25:27.386Z,24.05
2023-02-11T22:27:53.868Z,23.83
2023-02-11T22:30:20.448Z,23.55
2023-02-11T22:32:47.327Z,22.95
2023-02-11T22:35:13.887Z,24.40
2023-02-11T22:37:40.305Z,24.88
2023-02-11T22:40:07.454Z,25.48
2023-02-11T22:42:33.940Z,24.00
2023-02-11T22:45:00.381Z,24.45
2023-02-11T22:47:27.497Z,25.47
2023-02-11T22:49:53.895Z,24.40
2023-02-11T22:52:20.370Z,25.98
2023-02-11T22:54:50.232Z,25.92
2023-02-11T22:57:16.629Z,25.70
2023-02-11T22:59:43.141Z,24.70
2023-02-11T23:02:09.791Z,24.80
2023-02-11T23:04:36.460Z,24.98
2023-02-11T23:07:02.883Z,25.52
2023-02-11T23:09:29.331Z,25.70
2023-02-11T23:11:55.825Z,25.57
2023-02-11T23:14:22.338Z,25.13
2023-02-11T23:16:51.191Z,24.50
2023-02-11T23:19:17.660Z,25.17
2023-02-11T23:21:44.197Z,24.40
2023-02-11T23:24:14.011Z,24.07
2023-02-11T23:26:42.213Z,21.98
2023-02-11T23:29:09.498Z,22.83
2023-02-11T23:31:39.751Z,24.73
2023-02-11T23:34:07.974Z,22.05
2023-02-11T23:36:34.467Z,23.00
2023-02-11T23:39:01.012Z,22.58
2023-02-11T23:41:28.750Z,23.00
2023-02-11T23:43:57.529Z,23.98
2023-02-11T23:46:25.798Z,23.58
2023-02-11T23:48:53.045Z,23.23
2023-02-11T23:51:19.877Z,24.92
2023-02-11T23:53:49.201Z,24.10
2023-02-11T23:56:18.869Z,23.42
2023-02-11T23:58:48.612Z,23.58
